createdAt,value
2023-01-10T00:01:16.010Z,4.33
2023-01-10T00:03:42.640Z,6.88
2023-01-10T00:06:09.245Z,5.45
2023-01-10T00:08:35.757Z,6.28
2023-01-10T00:11:22.181Z,3.45
2023-01-10T00:13:48.620Z,3.80
2023-01-10T00:16:15.309Z,5.68
2023-01-10T00:18:41.827Z,7.10
2023-01-10T00:21:09.455Z,4.68
2023-01-10T00:23:36.070Z,11.70
2023-01-10T00:26:02.557Z,4.77
2023-01-10T00:28:29.124Z,6.07
2023-01-10T00:31:00.130Z,7.88
2023-01-10T00:33:28.223Z,5.97
2023-01-10T00:35:54.701Z,3.10
2023-01-10T00:38:21.194Z,7.10
2023-01-10T00:40:47.729Z,8.00
2023-01-10T00:43:32.910Z,6.32
2023-01-10T00:45:59.575Z,3.20
2023-01-10T00:48:26.194Z,4.82
2023-01-10T00:50:52.718Z,5.73
2023-01-10T00:53:19.155Z,5.95
2023-01-10T00:55:45.908Z,7.47
2023-01-10T00:58:14.136Z,4.95
2023-01-10T01:00:41.724Z,6.22
2023-01-10T01:03:08.868Z,5.63
2023-01-10T01:05:41.753Z,6.03
2023-01-10T01:08:08.621Z,7.10
2023-01-10T01:10:35.157Z,6.30
2023-01-10T01:13:12.615Z,6.00
2023-01-10T01:15:39.184Z,6.43
2023-01-10T01:18:06.929Z,7.20
2023-01-10T01:20:33.647Z,4.63
2023-01-10T01:23:01.062Z,5.93
2023-01-10T01:25:28.421Z,8.00
2023-01-10T01:27:54.909Z,8.20
2023-01-10T01:30:21.467Z,4.45
2023-01-10T01:32:48.186Z,5.75
2023-01-10T01:35:16.247Z,5.75
2023-01-10T01:37:43.971Z,2.20
2023-01-10T01:40:16.420Z,8.53
2023-01-10T01:42:43.553Z,4.65
2023-01-10T01:45:10.004Z,7.10
2023-01-10T01:47:49.914Z,11.15
2023-01-10T01:50:19.438Z,9.10
2023-01-10T01:52:48.874Z,5.00
2023-01-10T01:55:15.736Z,6.68
2023-01-10T01:57:42.466Z,5.50
2023-01-10T02:00:10.637Z,4.57
2023-01-10T02:02:57.576Z,3.08
2023-01-10T02:05:30.446Z,5.27
2023-01-10T02:07:59.826Z,5.35
2023-01-10T02:10:38.385Z,5.88
2023-01-10T02:13:07.668Z,4.82
2023-01-10T02:15:34.329Z,4.53
2023-01-10T02:18:02.718Z,7.20
2023-01-10T02:20:35.102Z,9.80
2023-01-10T02:23:25.534Z,5.45
2023-01-10T02:26:04.051Z,9.55
2023-01-10T02:28:39.438Z,6.68
2023-01-10T02:31:57.140Z,2.60
2023-01-10T02:34:35.228Z,7.30
2023-01-10T02:37:01.666Z,5.65
2023-01-10T02:39:34.041Z,5.50
2023-01-10T02:42:19.097Z,8.73
2023-01-10T02:45:08.054Z,5.17
2023-01-10T02:47:39.342Z,9.20
2023-01-10T02:50:42.864Z,8.55
2023-01-10T02:53:36.753Z,3.67
2023-01-10T02:56:34.453Z,3.45
2023-01-10T02:59:24.415Z,8.93
2023-01-10T03:01:58.895Z,8.25
2023-01-10T03:04:34.020Z,4.78
2023-01-10T03:07:12.692Z,5.75
2023-01-10T03:09:52.693Z,5.82
2023-01-10T03:12:31.550Z,4.93
2023-01-10T03:15:00.692Z,11.30
2023-01-10T03:17:29.822Z,3.45
2023-01-10T03:20:05.089Z,3.72
2023-01-10T03:22:35.810Z,8.85
2023-01-10T03:25:07.358Z,4.43
2023-01-10T03:27:40.745Z,9.32
2023-01-10T03:30:36.558Z,14.25
2023-01-10T03:33:04.677Z,11.88
2023-01-10T03:35:53.129Z,7.75
2023-01-10T03:38:43.952Z,7.43
2023-01-10T03:41:27.014Z,5.38
2023-01-10T03:44:25.329Z,9.20
2023-01-10T03:46:57.103Z,9.20
2023-01-10T03:49:25.870Z,4.68
2023-01-10T03:51:53.870Z,10.43
2023-01-10T03:54:20.478Z,13.95
2023-01-10T03:56:52.379Z,2.70
2023-01-10T03:59:27.281Z,4.43
2023-01-10T04:01:55.272Z,5.22
2023-01-10T04:04:22.514Z,7.43
2023-01-10T04:06:49.063Z,6.82
2023-01-10T04:09:15.599Z,5.00
2023-01-10T04:11:42.096Z,14.65
2023-01-10T04:14:08.709Z,4.63
2023-01-10T04:16:35.296Z,6.47
2023-01-10T04:19:01.778Z,7.53
2023-01-10T04:21:28.213Z,5.65
2023-01-10T04:23:54.822Z,7.57
2023-01-10T04:26:21.281Z,6.55
2023-01-10T04:28:47.866Z,5.93
2023-01-10T04:31:14.808Z,10.73
2023-01-10T04:33:41.320Z,9.73
2023-01-10T04:36:08.162Z,9.07
2023-01-10T04:38:34.801Z,7.47
2023-01-10T04:41:01.251Z,9.70
2023-01-10T04:43:27.709Z,10.13
2023-01-10T04:45:54.211Z,5.30
2023-01-10T04:48:21.064Z,6.25
2023-01-10T04:50:52.107Z,10.57
2023-01-10T04:53:19.253Z,5.47
2023-01-10T04:55:46.167Z,5.15
2023-01-10T04:58:13.243Z,7.10
2023-01-10T05:00:40.015Z,7.85
2023-01-10T05:03:06.901Z,3.50
2023-01-10T05:05:33.567Z,5.20
2023-01-10T05:08:00.064Z,5.38
2023-01-10T05:10:26.641Z,6.93
2023-01-10T05:12:53.281Z,6.85
2023-01-10T05:15:21.306Z,7.20
2023-01-10T05:17:47.985Z,5.20
2023-01-10T05:20:14.528Z,5.40
2023-01-10T05:22:41.048Z,5.85
2023-01-10T05:25:07.914Z,5.80
2023-01-10T05:27:34.387Z,7.13
2023-01-10T05:30:00.860Z,9.27
2023-01-10T05:32:30.530Z,4.82
2023-01-10T05:34:57.281Z,8.40
2023-01-10T05:37:23.816Z,14.00
2023-01-10T05:39:50.257Z,5.20
2023-01-10T05:42:16.755Z,7.37
2023-01-10T05:44:43.210Z,7.28
2023-01-10T05:47:09.701Z,13.73
2023-01-10T05:49:36.195Z,6.28
2023-01-10T05:52:02.698Z,6.95
2023-01-10T05:54:29.741Z,7.90
2023-01-10T05:56:56.492Z,8.40
2023-01-10T05:59:30.059Z,12.45
2023-01-10T06:01:56.612Z,5.57
2023-01-10T06:04:23.294Z,9.65
2023-01-10T06:06:49.861Z,7.23
2023-01-10T06:09:16.411Z,11.80
2023-01-10T06:11:42.870Z,7.53
2023-01-10T06:14:09.601Z,8.57
2023-01-10T06:16:36.173Z,13.10
2023-01-10T06:19:02.714Z,12.50
2023-01-10T06:21:29.193Z,13.07
2023-01-10T06:23:56.060Z,6.35
2023-01-10T06:26:22.576Z,9.13
2023-01-10T06:28:49.100Z,11.73
2023-01-10T06:31:15.729Z,8.50
2023-01-10T06:33:43.970Z,16.42
2023-01-10T06:36:11.139Z,10.77
2023-01-10T06:38:37.799Z,11.00
2023-01-10T06:41:12.989Z,8.10
2023-01-10T06:43:47.414Z,10.27
2023-01-10T06:46:17.627Z,9.02
2023-01-10T06:48:45.612Z,7.45
2023-01-10T06:51:18.091Z,11.60
2023-01-10T06:53:46.361Z,10.38
2023-01-10T06:56:12.825Z,9.83
2023-01-10T06:58:39.606Z,9.95
2023-01-10T07:01:08.184Z,11.77
2023-01-10T07:03:34.917Z,7.65
2023-01-10T07:06:02.822Z,10.52
2023-01-10T07:08:29.419Z,9.97
2023-01-10T07:10:58.665Z,8.23
2023-01-10T07:13:25.224Z,13.63
2023-01-10T07:15:51.733Z,7.20
2023-01-10T07:18:18.338Z,16.67
2023-01-10T07:20:44.963Z,11.90
2023-01-10T07:23:11.504Z,7.47
2023-01-10T07:25:37.976Z,10.00
2023-01-10T07:28:05.249Z,9.85
2023-01-10T07:30:31.824Z,11.57
2023-01-10T07:32:58.814Z,15.07
2023-01-10T07:35:25.725Z,11.00
2023-01-10T07:37:52.327Z,6.80
2023-01-10T07:40:18.952Z,8.27
2023-01-10T07:42:45.437Z,15.20
2023-01-10T07:45:12.264Z,5.63
2023-01-10T07:47:38.778Z,8.40
2023-01-10T07:50:05.825Z,9.32
2023-01-10T07:52:33.333Z,13.07
2023-01-10T07:54:59.790Z,12.40
2023-01-10T07:57:26.289Z,8.23
2023-01-10T07:59:52.731Z,13.27
2023-01-10T08:02:19.447Z,11.43
2023-01-10T08:04:45.961Z,11.43
2023-01-10T08:07:12.423Z,15.05
2023-01-10T08:09:38.939Z,13.33
2023-01-10T08:12:05.517Z,17.00
2023-01-10T08:14:32.061Z,13.13
2023-01-10T08:16:58.559Z,13.65
2023-01-10T08:19:25.039Z,15.35
2023-01-10T08:21:51.494Z,8.47
2023-01-10T08:24:17.933Z,19.85
2023-01-10T08:26:44.428Z,10.65
2023-01-10T08:29:11.020Z,10.27
2023-01-10T08:31:37.620Z,12.30
2023-01-10T08:34:04.239Z,18.63
2023-01-10T08:36:30.748Z,9.07
2023-01-10T08:38:57.327Z,14.13
2023-01-10T08:41:24.080Z,11.50
2023-01-10T08:43:50.976Z,12.25
2023-01-10T08:46:18.966Z,11.33
2023-01-10T08:48:45.686Z,16.98
2023-01-10T08:51:12.155Z,15.48
2023-01-10T08:53:41.901Z,20.25
2023-01-10T08:56:09.199Z,10.15
2023-01-10T08:58:35.927Z,15.13
2023-01-10T09:01:07.941Z,7.00
2023-01-10T09:03:35.070Z,15.80
2023-01-10T09:06:02.340Z,9.07
2023-01-10T09:08:28.873Z,7.88
2023-01-10T09:11:00.327Z,12.17
2023-01-10T09:13:27.851Z,7.75
2023-01-10T09:15:54.627Z,12.40
2023-01-10T09:18:21.517Z,10.38
2023-01-10T09:20:50.044Z,6.93
2023-01-10T09:23:20.098Z,8.23
2023-01-10T09:25:48.824Z,15.13
2023-01-10T09:28:16.487Z,11.25
2023-01-10T09:30:43.473Z,9.23
2023-01-10T09:33:10.568Z,11.98
2023-01-10T09:35:39.065Z,6.97
2023-01-10T09:38:07.875Z,14.85
2023-01-10T09:41:16.541Z,12.80
2023-01-10T09:43:49.267Z,9.30
2023-01-10T09:46:40.894Z,10.80
2023-01-10T09:49:15.583Z,14.87
2023-01-10T09:51:44.982Z,5.68
2023-01-10T09:54:17.434Z,13.02
2023-01-10T09:56:45.615Z,13.02
2023-01-10T09:59:17.331Z,12.38
2023-01-10T10:01:46.408Z,6.70
2023-01-10T10:04:15.930Z,10.38
2023-01-10T10:06:43.002Z,10.98
2023-01-10T10:09:19.868Z,8.43
2023-01-10T10:11:59.466Z,12.93
2023-01-10T10:14:54.263Z,12.47
2023-01-10T10:17:42.497Z,8.10
2023-01-10T10:20:27.365Z,6.00
2023-01-10T10:22:56.989Z,13.65
2023-01-10T10:25:35.659Z,10.57
2023-01-10T10:28:09.505Z,13.23
2023-01-10T10:30:51.194Z,10.32
2023-01-10T10:33:27.565Z,12.95
2023-01-10T10:36:09.443Z,7.93
2023-01-10T10:38:43.431Z,13.00
2023-01-10T10:41:25.374Z,8.40
2023-01-10T10:43:54.471Z,10.00
2023-01-10T10:46:22.261Z,9.95
2023-01-10T10:48:57.899Z,7.63
2023-01-10T10:51:50.992Z,13.55
2023-01-10T10:54:18.080Z,11.37
2023-01-10T10:56:46.271Z,11.52
2023-01-10T10:59:19.547Z,8.27
2023-01-10T11:01:49.642Z,6.93
2023-01-10T11:04:21.112Z,9.15
2023-01-10T11:06:51.141Z,7.70
2023-01-10T11:09:27.729Z,7.55
2023-01-10T11:11:56.803Z,11.05
2023-01-10T11:14:47.604Z,12.05
2023-01-10T11:17:34.426Z,11.55
2023-01-10T11:20:14.464Z,9.37
2023-01-10T11:22:48.487Z,7.60
2023-01-10T11:25:20.621Z,8.13
2023-01-10T11:27:52.027Z,13.20
2023-01-10T11:30:24.590Z,9.77
2023-01-10T11:32:57.211Z,13.47
2023-01-10T11:35:31.955Z,9.05
2023-01-10T11:38:18.579Z,3.58
2023-01-10T11:41:16.886Z,7.85
2023-01-10T11:43:43.527Z,6.20
2023-01-10T11:46:23.018Z,9.27
2023-01-10T11:49:08.202Z,7.35
2023-01-10T11:51:44.935Z,7.20
2023-01-10T11:54:17.705Z,5.43
2023-01-10T11:56:55.509Z,7.45
2023-01-10T11:59:23.462Z,10.30
2023-01-10T12:02:17.191Z,5.88
2023-01-10T12:04:47.669Z,8.05
2023-01-10T12:07:14.304Z,6.57
2023-01-10T12:09:43.079Z,15.40
2023-01-10T12:12:19.432Z,10.33
2023-01-10T12:14:46.458Z,10.48
2023-01-10T12:17:24.044Z,6.57
2023-01-10T12:19:53.263Z,11.88
2023-01-10T12:22:24.753Z,9.98
2023-01-10T12:24:54.365Z,9.73
2023-01-10T12:27:23.997Z,11.80
2023-01-10T12:30:32.686Z,9.38
2023-01-10T12:33:02.411Z,5.65
2023-01-10T12:35:42.019Z,9.38
2023-01-10T12:38:22.298Z,8.10
2023-01-10T12:41:01.025Z,10.48
2023-01-10T12:43:53.994Z,8.50
2023-01-10T12:46:56.652Z,5.80
2023-01-10T12:49:23.637Z,8.07
2023-01-10T12:51:53.015Z,8.43
2023-01-10T12:54:23.231Z,9.55
2023-01-10T12:56:50.873Z,4.65
2023-01-10T12:59:36.421Z,7.03
2023-01-10T13:02:14.807Z,5.60
2023-01-10T13:04:43.512Z,8.90
2023-01-10T13:07:13.780Z,13.25
2023-01-10T13:09:42.913Z,7.25
2023-01-10T13:12:21.674Z,6.63
2023-01-10T13:15:05.147Z,11.63
2023-01-10T13:17:31.650Z,11.07
2023-01-10T13:20:38.108Z,10.57
2023-01-10T13:23:20.759Z,7.90
2023-01-10T13:25:55.728Z,10.10
2023-01-10T13:28:28.521Z,8.68
2023-01-10T13:30:58.887Z,6.23
2023-01-10T13:33:29.376Z,7.97
2023-01-10T13:36:16.933Z,9.85
2023-01-10T13:39:02.032Z,5.68
2023-01-10T13:42:18.206Z,6.20
2023-01-10T13:45:13.374Z,8.30
2023-01-10T13:47:40.061Z,8.07
2023-01-10T13:50:25.439Z,9.07
2023-01-10T13:52:55.724Z,8.18
2023-01-10T13:55:46.719Z,8.77
2023-01-10T13:58:16.406Z,6.23
2023-01-10T14:01:11.558Z,7.50
2023-01-10T14:03:53.457Z,3.35
2023-01-10T14:06:28.974Z,11.85
2023-01-10T14:09:00.655Z,7.07
2023-01-10T14:11:32.772Z,8.80
2023-01-10T14:14:02.342Z,6.95
2023-01-10T14:16:35.550Z,9.00
2023-01-10T14:19:31.006Z,10.82
2023-01-10T14:22:00.682Z,10.52
2023-01-10T14:24:32.145Z,14.17
2023-01-10T14:27:01.604Z,12.18
2023-01-10T14:29:33.956Z,11.45
2023-01-10T14:32:01.584Z,7.45
2023-01-10T14:34:31.365Z,7.90
2023-01-10T14:37:01.052Z,8.30
2023-01-10T14:39:29.389Z,9.18
2023-01-10T14:42:03.707Z,5.90
2023-01-10T14:44:45.795Z,6.22
2023-01-10T14:47:35.592Z,5.25
2023-01-10T14:50:02.971Z,11.53
2023-01-10T14:52:30.415Z,9.77
2023-01-10T14:55:16.627Z,13.18
2023-01-10T14:58:00.193Z,8.80
2023-01-10T15:00:36.497Z,9.27
2023-01-10T15:03:04.191Z,9.37
2023-01-10T15:05:36.242Z,8.52
2023-01-10T15:08:25.942Z,9.00
2023-01-10T15:10:57.756Z,8.73
2023-01-10T15:13:28.346Z,8.15
2023-01-10T15:15:56.792Z,9.97
2023-01-10T15:18:33.982Z,8.07
2023-01-10T15:21:01.354Z,14.63
2023-01-10T15:23:39.733Z,9.55
2023-01-10T15:26:10.613Z,6.05
2023-01-10T15:28:37.766Z,10.17
2023-01-10T15:31:06.716Z,13.30
2023-01-10T15:33:36.076Z,6.53
2023-01-10T15:36:06.045Z,5.43
2023-01-10T15:38:35.816Z,5.78
2023-01-10T15:41:05.986Z,9.90
2023-01-10T15:43:34.712Z,5.22
2023-01-10T15:46:04.306Z,9.50
2023-01-10T15:48:30.862Z,5.63
2023-01-10T15:51:29.602Z,6.97
2023-01-10T15:54:16.305Z,6.60
2023-01-10T15:56:49.318Z,10.27
2023-01-10T15:59:37.095Z,6.10
2023-01-10T16:02:15.674Z,7.50
2023-01-10T16:04:44.692Z,6.70
2023-01-10T16:07:34.351Z,6.57
2023-01-10T16:10:06.116Z,5.32
2023-01-10T16:12:56.538Z,3.70
2023-01-10T16:15:31.883Z,4.75
2023-01-10T16:17:58.949Z,4.63
2023-01-10T16:20:41.222Z,5.47
2023-01-10T16:23:15.886Z,4.47
2023-01-10T16:25:45.543Z,3.00
2023-01-10T16:28:13.927Z,5.80
2023-01-10T16:30:43.732Z,1.85
2023-01-10T16:33:12.911Z,3.13
2023-01-10T16:35:39.486Z,3.20
2023-01-10T16:38:06.013Z,4.03
2023-01-10T16:40:38.495Z,4.63
2023-01-10T16:43:25.680Z,1.48
2023-01-10T16:45:54.683Z,3.27
2023-01-10T16:48:21.657Z,3.30
2023-01-10T16:50:48.800Z,4.13
2023-01-10T16:53:17.856Z,4.03
2023-01-10T16:55:46.097Z,4.38
2023-01-10T16:58:14.444Z,3.13
2023-01-10T17:00:42.838Z,4.93
2023-01-10T17:03:14.216Z,5.10
2023-01-10T17:05:41.128Z,4.82
2023-01-10T17:08:15.304Z,2.30
2023-01-10T17:10:42.015Z,2.67
2023-01-10T17:13:11.062Z,4.15
2023-01-10T17:15:37.589Z,8.82
2023-01-10T17:18:04.422Z,5.38
2023-01-10T17:20:31.048Z,4.65
2023-01-10T17:22:58.021Z,2.53
2023-01-10T17:25:24.670Z,2.45
2023-01-10T17:27:51.141Z,1.20
2023-01-10T17:30:17.930Z,2.03
2023-01-10T17:32:44.600Z,2.95
2023-01-10T17:35:11.134Z,2.13
2023-01-10T17:37:37.668Z,1.30
2023-01-10T17:40:05.744Z,2.75
2023-01-10T17:42:32.329Z,0.98
2023-01-10T17:44:58.802Z,1.15
2023-01-10T17:47:25.268Z,1.60
2023-01-10T17:49:51.777Z,2.80
2023-01-10T17:52:18.371Z,1.80
2023-01-10T17:54:44.867Z,2.25
2023-01-10T17:57:12.106Z,2.78
2023-01-10T17:59:38.801Z,2.03
2023-01-10T18:02:06.036Z,1.67
2023-01-10T18:04:32.632Z,2.78
2023-01-10T18:06:59.244Z,3.10
2023-01-10T18:09:25.916Z,2.88
2023-01-10T18:11:52.418Z,1.73
2023-01-10T18:14:37.039Z,1.75
2023-01-10T18:17:10.248Z,1.00
2023-01-10T18:19:37.354Z,1.55
2023-01-10T18:22:24.461Z,1.98
2023-01-10T18:24:52.848Z,1.00
2023-01-10T18:27:19.719Z,1.42
2023-01-10T18:29:46.409Z,1.30
2023-01-10T18:32:12.936Z,1.65
2023-01-10T18:34:39.411Z,3.85
2023-01-10T18:37:05.900Z,3.23
2023-01-10T18:39:32.478Z,2.30
2023-01-10T18:41:59.130Z,3.97
2023-01-10T18:44:25.622Z,6.82
2023-01-10T18:46:52.141Z,3.22
2023-01-10T18:49:18.677Z,2.10
2023-01-10T18:51:45.158Z,4.57
2023-01-10T18:54:11.685Z,3.17
2023-01-10T18:56:38.210Z,2.60
2023-01-10T18:59:04.649Z,2.17
2023-01-10T19:01:34.637Z,2.90
2023-01-10T19:04:01.418Z,2.95
2023-01-10T19:06:28.108Z,3.50
2023-01-10T19:08:55.241Z,3.35
2023-01-10T19:11:21.766Z,2.53
2023-01-10T19:13:51.966Z,2.60
2023-01-10T19:16:25.747Z,3.42
2023-01-10T19:18:54.907Z,3.58
2023-01-10T19:21:21.864Z,2.60
2023-01-10T19:23:55.008Z,3.28
2023-01-10T19:26:22.330Z,2.10
2023-01-10T19:28:49.149Z,3.65
2023-01-10T19:31:22.643Z,4.03
2023-01-10T19:33:50.647Z,2.60
2023-01-10T19:36:19.189Z,3.85
2023-01-10T19:38:45.854Z,4.63
2023-01-10T19:41:14.366Z,3.20
2023-01-10T19:43:41.028Z,2.65
2023-01-10T19:46:12.873Z,1.70
2023-01-10T19:48:39.754Z,1.95
2023-01-10T19:51:12.609Z,2.10
2023-01-10T19:53:44.209Z,2.88
2023-01-10T19:56:11.849Z,4.05
2023-01-10T19:58:38.944Z,3.58
2023-01-10T20:01:15.300Z,3.72
2023-01-10T20:03:42.458Z,2.03
2023-01-10T20:06:11.038Z,3.92
2023-01-10T20:08:37.541Z,7.28
2023-01-10T20:11:05.836Z,4.22
2023-01-10T20:13:37.190Z,3.85
2023-01-10T20:16:07.362Z,2.67
2023-01-10T20:18:33.842Z,3.90
2023-01-10T20:21:09.140Z,6.93
2023-01-10T20:23:37.636Z,3.85
2023-01-10T20:26:07.229Z,2.63
2023-01-10T20:28:34.310Z,2.40
2023-01-10T20:31:01.427Z,2.72
2023-01-10T20:33:28.293Z,5.05
2023-01-10T20:35:59.611Z,4.55
2023-01-10T20:38:27.952Z,4.57
2023-01-10T20:41:02.172Z,2.10
2023-01-10T20:43:28.890Z,5.75
2023-01-10T20:45:55.732Z,3.10
2023-01-10T20:48:22.893Z,3.97
2023-01-10T20:50:49.414Z,3.65
2023-01-10T20:53:16.075Z,3.93
2023-01-10T20:55:44.228Z,3.33
2023-01-10T20:58:11.938Z,3.45
2023-01-10T21:00:38.836Z,2.20
2023-01-10T21:03:06.299Z,4.63
2023-01-10T21:05:33.196Z,4.37
2023-01-10T21:07:59.758Z,3.08
2023-01-10T21:10:26.246Z,3.70
2023-01-10T21:12:52.766Z,3.42
2023-01-10T21:15:19.246Z,3.28
2023-01-10T21:17:48.639Z,3.57
2023-01-10T21:20:15.355Z,4.53
2023-01-10T21:22:42.007Z,12.25
2023-01-10T21:25:09.115Z,4.97
2023-01-10T21:27:35.656Z,6.18
2023-01-10T21:30:03.023Z,6.40
2023-01-10T21:32:29.515Z,6.28
2023-01-10T21:34:56.046Z,4.68
2023-01-10T21:37:22.574Z,3.47
2023-01-10T21:39:49.182Z,4.55
2023-01-10T21:42:34.475Z,4.13
2023-01-10T21:45:02.117Z,2.63
2023-01-10T21:47:28.713Z,3.72
2023-01-10T21:49:55.283Z,3.25
2023-01-10T21:52:21.915Z,2.40
2023-01-10T21:54:48.425Z,1.60
2023-01-10T21:57:19.201Z,1.60
2023-01-10T21:59:45.700Z,2.10
2023-01-10T22:02:12.458Z,3.38
2023-01-10T22:04:39.009Z,2.55
2023-01-10T22:07:05.494Z,2.90
2023-01-10T22:09:32.034Z,2.35
2023-01-10T22:11:58.505Z,2.75
2023-01-10T22:14:24.981Z,1.88
2023-01-10T22:16:51.431Z,2.15
2023-01-10T22:19:17.927Z,2.77
2023-01-10T22:21:44.430Z,2.20
2023-01-10T22:24:11.876Z,2.08
2023-01-10T22:26:38.481Z,3.00
2023-01-10T22:29:05.180Z,2.58
2023-01-10T22:31:31.900Z,2.40
2023-01-10T22:33:58.536Z,2.63
2023-01-10T22:36:25.117Z,3.30
2023-01-10T22:38:51.579Z,1.98
2023-01-10T22:41:29.488Z,2.28
2023-01-10T22:43:56.308Z,2.57
2023-01-10T22:46:23.262Z,2.13
2023-01-10T22:48:49.945Z,2.33
2023-01-10T22:51:18.110Z,3.03
2023-01-10T22:53:50.053Z,1.92
2023-01-10T22:56:16.526Z,2.20
2023-01-10T22:58:47.754Z,3.05
2023-01-10T23:01:16.299Z,2.42
2023-01-10T23:03:43.059Z,3.20
2023-01-10T23:06:10.507Z,2.50
2023-01-10T23:08:38.693Z,2.97
2023-01-10T23:11:06.085Z,2.75
2023-01-10T23:13:33.014Z,4.43
2023-01-10T23:16:02.222Z,3.15
2023-01-10T23:18:29.522Z,3.95
2023-01-10T23:20:56.313Z,2.70
2023-01-10T23:23:24.463Z,2.78
2023-01-10T23:26:01.366Z,3.40
2023-01-10T23:28:36.406Z,2.53
2023-01-10T23:31:04.462Z,1.95
2023-01-10T23:33:31.731Z,3.43
2023-01-10T23:35:58.504Z,3.42
2023-01-10T23:38:25.136Z,4.97
2023-01-10T23:40:52.013Z,2.70
2023-01-10T23:43:18.531Z,2.83
2023-01-10T23:45:45.336Z,2.93
2023-01-10T23:48:12.608Z,2.38
2023-01-10T23:50:39.525Z,5.75
2023-01-10T23:53:06.536Z,4.78
2023-01-10T23:55:33.799Z,3.00
2023-01-10T23:58:00.583Z,2.23
